Time,TemperatureF,DewpointF,PressureIn,WindDirection,WindDirectionDegrees,WindSpeedMPH,WindSpeedGustMPH,Humidity,HourlyPrecipIn,Conditions,Clouds,dailyrainin,SoftwareType,DateUTC
2013-04-11 00:00:00,61.3,61.1,28.83,SW,225,0.0,0.0,99,0.00,CLR,,0.00,WeatherDisplay:10.37,2013-04-11 04:00:00,
2013-04-11 00:01:00,61.3,61.1,28.83,SW,225,0.0,0.0,99,0.00,CLR,,0.00,WeatherDisplay:10.37,2013-04-11 04:01:00,
2013-04-11 00:02:00,61.3,61.1,28.83,SW,225,0.0,0.0,99,0.00,CLR,,0.00,WeatherDisplay:10.37,2013-04-11 04:02:00,
2013-04-11 00:07:00,61.2,60.9,28.84,SW,225,0.0,0.0,99,0.00,CLR,,0.00,WeatherDisplay:10.37,2013-04-11 04:07:00,
2013-04-11 00:12:00,61.0,60.7,28.84,SW,225,0.0,0.0,99,0.00,CLR,,0.00,WeatherDisplay:10.37,2013-04-11 04:12:00,
2013-04-11 00:17:00,60.8,60.5,28.84,SW,225,0.0,0.0,99,0.00,CLR,,0.00,WeatherDisplay:10.37,2013-04-11 04:17:00,
2013-04-11 00:22:00,60.6,60.3,28.84,SW,225,0.0,0.0,99,0.00,CLR,,0.00,WeatherDisplay:10.37,2013-04-11 04:22:00,
2013-04-11 00:27:00,60.4,60.2,28.84,SW,225,0.0,0.0,99,0.00,CLR,,0.00,WeatherDisplay:10.37,2013-04-11 04:27:00,
2013-04-11 00:32:00,60.1,59.8,28.84,SW,225,0.0,0.0,99,0.00,CLR,,0.00,WeatherDisplay:10.37,2013-04-11 04:32:00,
2013-04-11 00:37:00,59.9,59.6,28.84,SW,225,0.0,0.0,99,0.00,CLR,,0.00,WeatherDisplay:10.37,2013-04-11 04:37:00,
2013-04-11 00:42:00,59.7,59.4,28.84,SW,225,0.0,0.0,99,0.00,CLR,,0.00,WeatherDisplay:10.37,2013-04-11 04:42:00,
2013-04-11 00:47:00,59.5,59.3,28.84,SW,225,0.0,0.0,99,0.00,CLR,,0.00,WeatherDisplay:10.37,2013-04-11 04:47:00,
2013-04-11 00:52:00,59.4,59.1,28.84,SW,225,0.0,0.0,99,0.00,CLR,,0.00,WeatherDisplay:10.37,2013-04-11 04:52:00,
2013-04-11 00:57:00,59.0,58.7,28.84,SW,225,0.0,0.0,99,0.00,CLR,,0.00,WeatherDisplay:10.37,2013-04-11 04:57:00,
2013-04-11 01:02:00,58.8,58.5,28.84,SW,225,0.0,0.0,99,0.00,CLR,,0.00,WeatherDisplay:10.37,2013-04-11 05:02:00,
2013-04-11 01:07:00,59.2,58.9,28.84,SW,225,0.0,0.0,99,0.00,CLR,,0.00,WeatherDisplay:10.37,2013-04-11 05:07:00,
2013-04-11 01:12:00,59.4,59.1,28.84,SW,225,0.0,0.0,99,0.00,CLR,,0.00,WeatherDisplay:10.37,2013-04-11 05:12:00,
2013-04-11 01:18:00,59.9,59.6,28.84,SW,225,0.0,0.0,99,0.00,CLR,,0.00,WeatherDisplay:10.37,2013-04-11 05:18:00,
2013-04-11 01:23:00,60.3,60.0,28.84,SW,225,0.0,0.0,99,0.00,CLR,,0.00,WeatherDisplay:10.37,2013-04-11 05:23:00,
2013-04-11 01:28:00,61.2,60.9,28.84,SW,225,0.0,0.0,99,0.00,CLR,,0.00,WeatherDisplay:10.37,2013-04-11 05:28:00,
2013-04-11 01:33:00,61.9,61.6,28.84,SW,225,2.3,2.3,99,0.00,CLR,,0.00,WeatherDisplay:10.37,2013-04-11 05:33:00,
2013-04-11 01:38:00,62.2,62.0,28.84,SW,225,0.0,0.0,99,0.00,CLR,,0.00,WeatherDisplay:10.37,2013-04-11 05:38:00,
2013-04-11 01:43:00,62.8,62.5,28.84,SW,225,2.3,0.0,99,0.00,CLR,,0.00,WeatherDisplay:10.37,2013-04-11 05:43:00,
2013-04-11 01:48:00,63.3,63.0,28.84,South,180,1.2,0.0,99,0.00,CLR,,0.00,WeatherDisplay:10.37,2013-04-11 05:48:00,
2013-04-11 01:53:00,63.9,63.6,28.84,SW,225,3.5,0.0,99,0.00,CLR,,0.00,WeatherDisplay:10.37,2013-04-11 05:53:00,
2013-04-11 01:58:00,64.2,63.9,28.84,SW,225,2.3,0.0,99,0.00,CLR,,0.00,WeatherDisplay:10.37,2013-04-11 05:58:00,
2013-04-11 02:03:00,64.0,63.8,28.84,SW,225,0.0,0.0,99,0.00,CLR,,0.00,WeatherDisplay:10.37,2013-04-11 06:03:00,
2013-04-11 02:08:00,63.9,63.6,28.84,SW,225,1.2,0.0,99,0.00,CLR,,0.00,WeatherDisplay:10.37,2013-04-11 06:08:00,
2013-04-11 02:13:00,63.3,63.0,28.83,SW,225,1.2,0.0,99,0.00,CLR,,0.00,WeatherDisplay:10.37,2013-04-11 06:13:00,
2013-04-11 02:18:00,63.3,63.0,28.83,SW,225,0.0,0.0,99,0.00,CLR,,0.00,WeatherDisplay:10.37,2013-04-11 06:18:00,
2013-04-11 02:23:00,62.8,62.5,28.83,SW,225,0.0,0.0,99,0.00,CLR,,0.00,WeatherDisplay:10.37,2013-04-11 06:23:00,
2013-04-11 02:28:00,62.6,62.3,28.83,SW,225,1.2,0.0,99,0.00,CLR,,0.00,WeatherDisplay:10.37,2013-04-11 06:28:00,
2013-04-11 02:33:00,62.8,62.5,28.83,SW,225,0.0,0.0,99,0.00,CLR,,0.00,WeatherDisplay:10.37,2013-04-11 06:33:00,
2013-04-11 02:38:00,63.0,62.7,28.83,SW,225,0.0,0.0,99,0.00,CLR,,0.00,WeatherDisplay:10.37,2013-04-11 06:38:00,
2013-04-11 02:43:00,62.8,62.5,28.83,SW,225,2.3,0.0,99,0.00,CLR,,0.00,WeatherDisplay:10.37,2013-04-11 06:43:00,
2013-04-11 02:48:00,63.0,62.7,28.83,SW,225,1.2,0.0,99,0.00,CLR,,0.00,WeatherDisplay:10.37,2013-04-11 06:48:00,
2013-04-11 02:53:00,62.8,62.5,28.83,SW,225,0.0,0.0,99,0.00,CLR,,0.00,WeatherDisplay:10.37,2013-04-11 06:53:00,
2013-04-11 02:58:00,62.4,62.1,28.83,SW,225,0.0,0.0,99,0.00,CLR,,0.00,WeatherDisplay:10.37,2013-04-11 06:58:00,
2013-04-11 03:03:00,62.1,61.8,28.84,SW,225,0.0,0.0,99,0.00,CLR,,0.00,WeatherDisplay:10.37,2013-04-11 07:03:00,
2013-04-11 03:08:00,62.1,61.8,28.83,SW,225,0.0,0.0,99,0.00,CLR,,0.00,WeatherDisplay:10.37,2013-04-11 07:08:00,
2013-04-11 03:13:00,61.7,61.4,28.84,SW,225,1.2,0.0,99,0.00,CLR,,0.00,WeatherDisplay:10.37,2013-04-11 07:13:00,
2013-04-11 03:20:00,61.5,61.2,28.83,SW,225,0.0,0.7,99,0.00,CLR,,0.00,WeatherDisplay:10.37,2013-04-11 07:20:00,
2013-04-11 03:25:00,61.7,61.4,28.83,SW,225,1.2,0.0,99,0.00,CLR,,0.00,WeatherDisplay:10.37,2013-04-11 07:25:00,
2013-04-11 03:32:00,61.7,61.4,28.83,SW,225,0.0,0.0,99,0.00,CLR,,0.00,WeatherDisplay:10.37,2013-04-11 07:32:00,
2013-04-11 03:37:00,61.5,61.2,28.83,SW,225,0.0,0.0,99,0.00,CLR,,0.00,WeatherDisplay:10.37,2013-04-11 07:37:00,
2013-04-11 03:42:00,61.5,61.2,28.83,SW,225,2.3,0.0,99,0.00,CLR,,0.00,WeatherDisplay:10.37,2013-04-11 07:42:00,
2013-04-11 03:47:00,61.3,61.1,28.83,SW,225,0.0,0.0,99,0.00,CLR,,0.00,WeatherDisplay:10.37,2013-04-11 07:47:00,
2013-04-11 03:52:00,61.3,61.1,28.83,SW,225,1.2,0.0,99,0.00,CLR,,0.00,WeatherDisplay:10.37,2013-04-11 07:52:00,
2013-04-11 03:57:00,61.3,61.1,28.82,SW,225,1.2,0.0,99,0.00,CLR,,0.00,WeatherDisplay:10.37,2013-04-11 07:57:00,
2013-04-11 04:02:00,61.5,61.2,28.82,West,270,4.6,4.6,99,0.00,CLR,,0.00,WeatherDisplay:10.37,2013-04-11 08:02:00,
2013-04-11 04:07:00,61.3,61.1,28.82,NW,315,0.0,0.0,99,0.00,CLR,,0.00,WeatherDisplay:10.37,2013-04-11 08:07:00,
2013-04-11 04:12:00,61.2,60.9,28.82,NW,315,1.2,0.0,99,0.00,CLR,,0.00,WeatherDisplay:10.37,2013-04-11 08:12:00,
2013-04-11 04:17:00,60.8,60.5,28.82,NW,315,0.0,0.0,99,0.00,CLR,,0.00,WeatherDisplay:10.37,2013-04-11 08:17:00,
2013-04-11 04:22:00,60.4,60.2,28.82,NW,315,0.0,0.0,99,0.00,CLR,,0.00,WeatherDisplay:10.37,2013-04-11 08:22:00,
2013-04-11 04:27:00,60.3,60.0,28.82,NW,315,0.0,0.0,99,0.00,CLR,,0.00,WeatherDisplay:10.37,2013-04-11 08:27:00,
2013-04-11 04:32:00,60.1,59.8,28.82,NW,315,0.0,0.0,99,0.00,CLR,,0.00,WeatherDisplay:10.37,2013-04-11 08:32:00,
2013-04-11 04:37:00,59.7,59.4,28.83,NW,315,0.0,0.0,99,0.00,CLR,,0.00,WeatherDisplay:10.37,2013-04-11 08:37:00,
2013-04-11 04:43:00,59.5,59.3,28.83,NW,315,0.0,0.0,99,0.00,CLR,,0.00,WeatherDisplay:10.37,2013-04-11 08:43:00,
2013-04-11 04:48:00,59.4,59.1,28.83,NW,315,0.0,0.0,99,0.00,CLR,,0.00,WeatherDisplay:10.37,2013-04-11 08:48:00,
2013-04-11 04:53:00,58.8,58.5,28.83,NW,315,0.0,0.0,99,0.00,CLR,,0.00,WeatherDisplay:10.37,2013-04-11 08:53:00,
2013-04-11 04:58:00,58.5,58.2,28.82,NW,315,0.0,0.0,99,0.00,CLR,,0.00,WeatherDisplay:10.37,2013-04-11 08:58:00,
2013-04-11 05:03:00,58.3,58.0,28.82,North,0,1.2,0.0,99,0.00,CLR,,0.00,WeatherDisplay:10.37,2013-04-11 09:03:00,
2013-04-11 05:08:00,58.3,58.0,28.82,North,0,0.0,0.0,99,0.00,CLR,,0.00,WeatherDisplay:10.37,2013-04-11 09:08:00,
2013-04-11 05:13:00,57.7,57.5,28.82,NW,315,0.0,0.0,99,0.00,CLR,,0.00,WeatherDisplay:10.37,2013-04-11 09:13:00,
2013-04-11 05:18:00,57.7,57.5,28.82,West,270,3.5,0.0,99,0.00,CLR,,0.00,WeatherDisplay:10.37,2013-04-11 09:18:00,
2013-04-11 05:23:00,57.7,57.5,28.82,NW,315,1.2,0.0,99,0.00,CLR,,0.00,WeatherDisplay:10.37,2013-04-11 09:23:00,
2013-04-11 05:28:00,57.7,57.5,28.83,NW,315,1.2,0.0,99,0.00,CLR,,0.00,WeatherDisplay:10.37,2013-04-11 09:28:00,
2013-04-11 05:33:00,57.6,57.3,28.83,NW,315,0.0,0.0,99,0.00,CLR,,0.00,WeatherDisplay:10.37,2013-04-11 09:33:00,
2013-04-11 05:38:00,57.0,56.7,28.83,NW,315,0.0,0.0,99,0.00,CLR,,0.00,WeatherDisplay:10.37,2013-04-11 09:38:00,
2013-04-11 05:43:00,56.8,56.6,28.83,NW,315,0.0,0.0,99,0.00,CLR,,0.00,WeatherDisplay:10.37,2013-04-11 09:43:00,
2013-04-11 05:48:00,56.5,56.2,28.84,NW,315,0.0,0.0,99,0.00,CLR,,0.00,WeatherDisplay:10.37,2013-04-11 09:48:00,
2013-04-11 05:53:00,56.3,56.0,28.84,NW,315,0.0,0.0,99,0.00,CLR,,0.00,WeatherDisplay:10.37,2013-04-11 09:53:00,
2013-04-11 05:58:00,55.9,55.7,28.84,NW,315,0.0,0.0,99,0.00,CLR,,0.00,WeatherDisplay:10.37,2013-04-11 09:58:00,
2013-04-11 06:03:00,55.9,55.7,28.84,NW,315,0.0,0.0,99,0.00,CLR,,0.00,WeatherDisplay:10.37,2013-04-11 10:03:00,
2013-04-11 06:08:00,55.8,55.5,28.84,NW,315,0.0,0.0,99,0.00,CLR,,0.00,WeatherDisplay:10.37,2013-04-11 10:08:00,
2013-04-11 06:13:00,55.6,55.3,28.84,NW,315,0.0,0.0,99,0.00,CLR,,0.00,WeatherDisplay:10.37,2013-04-11 10:13:00,
2013-04-11 06:18:00,55.8,55.5,28.84,NW,315,0.0,0.0,99,0.00,CLR,,0.00,WeatherDisplay:10.37,2013-04-11 10:18:00,
2013-04-11 06:23:00,55.9,55.7,28.84,NW,315,0.0,0.0,99,0.00,CLR,,0.00,WeatherDisplay:10.37,2013-04-11 10:23:00,
2013-04-11 06:28:00,56.3,56.0,28.83,NW,315,0.0,0.0,99,0.00,CLR,,0.00,WeatherDisplay:10.37,2013-04-11 10:28:00,
2013-04-11 06:33:00,56.5,56.2,28.84,NW,315,0.0,0.0,99,0.00,CLR,,0.00,WeatherDisplay:10.37,2013-04-11 10:33:00,
2013-04-11 06:38:00,56.7,56.4,28.84,NW,315,0.0,0.0,99,0.00,CLR,,0.00,WeatherDisplay:10.37,2013-04-11 10:38:00,
2013-04-11 06:43:00,56.7,56.4,28.84,NW,315,0.0,0.0,99,0.00,CLR,,0.00,WeatherDisplay:10.37,2013-04-11 10:43:00,
2013-04-11 06:48:00,56.8,56.6,28.84,NW,315,0.0,0.0,99,0.00,CLR,,0.00,WeatherDisplay:10.37,2013-04-11 10:48:00,
2013-04-11 06:53:00,56.8,56.6,28.84,NW,315,0.0,0.0,99,0.00,CLR,,0.00,WeatherDisplay:10.37,2013-04-11 10:53:00,
2013-04-11 06:58:00,57.7,57.5,28.84,NW,315,0.0,0.0,99,0.00,CLR,,0.00,WeatherDisplay:10.37,2013-04-11 10:58:00,
2013-04-11 07:03:00,57.9,57.6,28.84,NW,315,0.0,0.0,99,0.00,CLR,,0.00,WeatherDisplay:10.37,2013-04-11 11:03:00,
2013-04-11 07:08:00,58.5,58.2,28.84,NW,315,0.0,0.0,99,0.00,CLR,,0.00,WeatherDisplay:10.37,2013-04-11 11:08:00,
2013-04-11 07:13:00,58.8,58.5,28.84,West,270,0.0,0.0,99,0.00,CLR,,0.00,WeatherDisplay:10.37,2013-04-11 11:13:00,
2013-04-11 07:18:00,59.0,58.7,28.84,NW,315,0.0,0.0,99,0.00,CLR,,0.00,WeatherDisplay:10.37,2013-04-11 11:18:00,
2013-04-11 07:23:00,59.2,58.9,28.84,NW,315,2.3,0.0,99,0.00,CLR,,0.00,WeatherDisplay:10.37,2013-04-11 11:23:00,
2013-04-11 07:28:00,59.4,59.1,28.85,NW,315,0.0,0.0,99,0.00,CLR,,0.00,WeatherDisplay:10.37,2013-04-11 11:28:00,
2013-04-11 07:34:00,59.7,59.4,28.85,SW,225,0.0,0.0,99,0.00,CLR,,0.00,WeatherDisplay:10.37,2013-04-11 11:34:00,
2013-04-11 07:39:00,59.7,59.4,28.85,NW,315,0.0,0.0,99,0.00,CLR,,0.00,WeatherDisplay:10.37,2013-04-11 11:39:00,
2013-04-11 07:44:00,59.9,59.6,28.85,SW,225,0.0,0.0,99,0.00,CLR,,0.00,WeatherDisplay:10.37,2013-04-11 11:44:00,
2013-04-11 07:49:00,60.3,60.0,28.85,SW,225,0.0,0.0,99,0.00,CLR,,0.00,WeatherDisplay:10.37,2013-04-11 11:49:00,
2013-04-11 07:54:00,60.4,60.2,28.85,SW,225,0.0,0.0,99,0.00,CLR,,0.00,WeatherDisplay:10.37,2013-04-11 11:54:00,
2013-04-11 07:59:00,60.8,60.5,28.85,SW,225,0.0,0.0,99,0.00,CLR,,0.00,WeatherDisplay:10.37,2013-04-11 11:59:00,
2013-04-11 08:04:00,61.2,60.9,28.85,SW,225,0.0,0.0,99,0.00,CLR,,0.00,WeatherDisplay:10.37,2013-04-11 12:04:00,
2013-04-11 08:09:00,61.3,61.1,28.85,SW,225,0.0,0.0,99,0.00,CLR,,0.00,WeatherDisplay:10.37,2013-04-11 12:09:00,
2013-04-11 08:14:00,61.5,61.2,28.85,SW,225,0.0,0.0,99,0.00,CLR,,0.00,WeatherDisplay:10.37,2013-04-11 12:14:00,
2013-04-11 08:19:00,61.9,61.6,28.85,SW,225,2.3,0.0,99,0.00,CLR,,0.00,WeatherDisplay:10.37,2013-04-11 12:19:00,
2013-04-11 08:24:00,62.1,61.8,28.85,West,270,3.5,0.0,99,0.00,CLR,,0.00,WeatherDisplay:10.37,2013-04-11 12:24:00,
2013-04-11 08:29:00,62.4,62.1,28.86,NW,315,3.5,0.0,99,0.00,CLR,,0.00,WeatherDisplay:10.37,2013-04-11 12:29:00,
2013-04-11 08:34:00,62.6,62.3,28.86,SW,225,0.0,0.0,99,0.00,CLR,,0.00,WeatherDisplay:10.37,2013-04-11 12:34:00,
2013-04-11 08:39:00,62.8,62.5,28.86,SW,225,2.3,0.0,99,0.00,CLR,,0.00,WeatherDisplay:10.37,2013-04-11 12:39:00,
2013-04-11 08:44:00,63.0,62.7,28.86,SW,225,1.2,0.0,99,0.00,CLR,,0.00,WeatherDisplay:10.37,2013-04-11 12:44:00,
2013-04-11 08:49:00,63.1,62.9,28.86,North,0,2.3,0.0,99,0.00,CLR,,0.00,WeatherDisplay:10.37,2013-04-11 12:49:00,
2013-04-11 08:54:00,63.5,63.2,28.86,SW,225,0.0,0.0,99,0.00,CLR,,0.00,WeatherDisplay:10.37,2013-04-11 12:54:00,
2013-04-11 08:59:00,64.2,63.9,28.86,SW,225,0.0,0.0,99,0.00,CLR,,0.00,WeatherDisplay:10.37,2013-04-11 12:59:00,
2013-04-11 09:04:00,64.9,64.7,28.86,SW,225,1.2,0.0,99,0.00,CLR,,0.00,WeatherDisplay:10.37,2013-04-11 13:04:00,
2013-04-11 09:09:00,65.5,65.2,28.86,NW,315,3.5,0.0,99,0.00,CLR,,0.00,WeatherDisplay:10.37,2013-04-11 13:09:00,
2013-04-11 09:14:00,66.2,65.9,28.85,SW,225,1.2,0.0,99,0.00,CLR,,0.00,WeatherDisplay:10.37,2013-04-11 13:14:00,
2013-04-11 09:19:00,68.0,67.7,28.86,SW,225,1.2,0.0,99,0.00,CLR,,0.00,WeatherDisplay:10.37,2013-04-11 13:19:00,
2013-04-11 09:24:00,68.9,68.6,28.86,SW,225,1.2,0.0,99,0.00,CLR,,0.00,WeatherDisplay:10.37,2013-04-11 13:24:00,
2013-04-11 09:29:00,69.4,69.1,28.85,SW,225,3.5,3.5,99,0.00,CLR,,0.00,WeatherDisplay:10.37,2013-04-11 13:29:00,
2013-04-11 09:34:00,68.5,68.2,28.85,SW,225,1.2,1.2,99,0.00,CLR,,0.00,WeatherDisplay:10.37,2013-04-11 13:34:00,
2013-04-11 09:40:00,68.4,68.1,28.85,SW,225,2.3,0.0,99,0.00,CLR,,0.00,WeatherDisplay:10.37,2013-04-11 13:40:00,
2013-04-11 09:45:00,68.2,67.9,28.85,West,270,3.5,3.5,99,0.00,CLR,,0.00,WeatherDisplay:10.37,2013-04-11 13:45:00,
2013-04-11 09:50:00,68.0,67.7,28.86,South,180,5.8,0.0,99,0.00,CLR,,0.00,WeatherDisplay:10.37,2013-04-11 13:50:00,
2013-04-11 09:55:00,68.0,67.7,28.85,South,180,3.5,3.5,99,0.00,CLR,,0.00,WeatherDisplay:10.37,2013-04-11 13:55:00,
2013-04-11 10:00:00,68.4,68.1,28.85,SW,225,2.3,2.3,99,0.00,CLR,,0.00,WeatherDisplay:10.37,2013-04-11 14:00:00,
2013-04-11 10:05:00,68.9,68.6,28.85,NW,315,4.6,4.6,99,0.00,CLR,,0.00,WeatherDisplay:10.37,2013-04-11 14:05:00,
2013-04-11 10:11:00,68.7,68.4,28.86,SW,225,3.5,3.5,99,0.00,CLR,,0.00,WeatherDisplay:10.37,2013-04-11 14:11:00,
2013-04-11 10:16:00,68.5,68.2,28.85,NNE,22,5.8,5.8,99,0.00,CLR,,0.00,WeatherDisplay:10.37,2013-04-11 14:16:00,
2013-04-11 10:22:00,68.4,68.1,28.85,SW,225,3.5,0.0,99,0.00,CLR,,0.00,WeatherDisplay:10.37,2013-04-11 14:22:00,
2013-04-11 10:27:00,68.5,68.2,28.85,SSE,158,4.6,4.6,99,0.00,CLR,,0.00,WeatherDisplay:10.37,2013-04-11 14:27:00,
2013-04-11 10:32:00,68.7,68.4,28.85,SW,225,1.2,1.2,99,0.00,CLR,,0.00,WeatherDisplay:10.37,2013-04-11 14:32:00,
2013-04-11 10:38:00,68.7,68.4,28.85,SW,225,1.2,0.0,99,0.00,CLR,,0.00,WeatherDisplay:10.37,2013-04-11 14:38:00,
2013-04-11 10:43:00,68.5,68.2,28.85,SW,225,3.5,0.0,99,0.00,CLR,,0.00,WeatherDisplay:10.37,2013-04-11 14:43:00,
2013-04-11 10:49:00,68.5,68.2,28.85,East,90,2.3,2.3,99,0.00,CLR,,0.00,WeatherDisplay:10.37,2013-04-11 14:49:00,
2013-04-11 10:54:00,70.7,70.4,28.85,West,270,3.5,3.5,99,0.00,CLR,,0.00,WeatherDisplay:10.37,2013-04-11 14:54:00,
2013-04-11 10:59:00,72.5,71.9,28.84,SW,225,3.5,0.0,98,0.00,CLR,,0.00,WeatherDisplay:10.37,2013-04-11 14:59:00,
2013-04-11 11:04:00,75.7,71.9,28.85,South,180,5.8,5.8,88,0.00,CLR,,0.00,WeatherDisplay:10.37,2013-04-11 15:04:00,
2013-04-11 11:09:00,75.7,71.3,28.84,NW,315,3.5,3.5,86,0.00,CLR,,0.00,WeatherDisplay:10.37,2013-04-11 15:09:00,
2013-04-11 11:14:00,76.3,73.1,28.84,SW,225,1.2,0.0,90,0.00,CLR,,0.00,WeatherDisplay:10.37,2013-04-11 15:14:00,
2013-04-11 11:19:00,76.8,71.6,28.84,NW,315,3.5,3.5,84,0.00,CLR,,0.00,WeatherDisplay:10.37,2013-04-11 15:19:00,
2013-04-11 11:24:00,76.6,72.1,28.84,SW,225,3.5,0.0,86,0.00,CLR,,0.00,WeatherDisplay:10.37,2013-04-11 15:24:00,
2013-04-11 11:29:00,76.1,71.6,28.84,South,180,6.9,6.9,86,0.00,CLR,,0.00,WeatherDisplay:10.37,2013-04-11 15:29:00,
2013-04-11 11:34:00,75.6,71.1,28.84,SE,135,3.5,3.5,86,0.00,CLR,,0.00,WeatherDisplay:10.37,2013-04-11 15:34:00,
2013-04-11 11:39:00,77.0,73.2,28.84,North,0,3.5,3.5,88,0.00,CLR,,0.00,WeatherDisplay:10.37,2013-04-11 15:39:00,
2013-04-11 11:44:00,77.4,70.7,28.83,East,90,5.8,5.8,80,0.00,CLR,,0.00,WeatherDisplay:10.37,2013-04-11 15:44:00,
2013-04-11 11:50:00,78.4,72.5,28.83,South,180,3.5,3.5,82,0.00,CLR,,0.00,WeatherDisplay:10.37,2013-04-11 15:50:00,
2013-04-11 11:55:00,79.2,72.1,28.83,SW,225,3.5,3.5,79,0.00,CLR,,0.00,WeatherDisplay:10.37,2013-04-11 15:55:00,
2013-04-11 12:00:00,79.9,71.6,28.83,SW,225,4.6,4.6,76,0.00,CLR,,0.00,WeatherDisplay:10.37,2013-04-11 16:00:00,
2013-04-11 12:05:00,80.2,72.0,28.82,NW,315,3.5,3.5,76,0.00,CLR,,0.00,WeatherDisplay:10.37,2013-04-11 16:05:00,
2013-04-11 12:10:00,80.1,72.6,28.82,SW,225,3.5,3.5,78,0.00,CLR,,0.00,WeatherDisplay:10.37,2013-04-11 16:10:00,
2013-04-11 12:15:00,80.1,71.0,28.82,SW,225,3.5,3.5,74,0.00,CLR,,0.00,WeatherDisplay:10.37,2013-04-11 16:15:00,
2013-04-11 12:22:00,79.9,72.0,28.82,SW,225,11.5,11.5,77,0.00,CLR,,0.00,WeatherDisplay:10.37,2013-04-11 16:22:00,
2013-04-11 12:27:00,78.6,71.2,28.82,NW,315,4.6,4.6,78,0.00,CLR,,0.00,WeatherDisplay:10.37,2013-04-11 16:27:00,
2013-04-11 12:33:00,79.0,72.3,28.81,SW,225,4.6,0.0,80,0.00,CLR,,0.00,WeatherDisplay:10.37,2013-04-11 16:33:00,
2013-04-11 12:38:00,78.8,72.1,28.82,SW,225,5.8,5.8,80,0.00,CLR,,0.00,WeatherDisplay:10.37,2013-04-11 16:38:00,
2013-04-11 12:43:00,79.2,72.1,28.81,North,0,3.5,3.5,79,0.00,CLR,,0.00,WeatherDisplay:10.37,2013-04-11 16:43:00,
2013-04-11 12:48:00,80.1,73.7,28.81,SW,225,6.9,6.9,81,0.00,CLR,,0.00,WeatherDisplay:10.37,2013-04-11 16:48:00,
2013-04-11 12:54:00,79.5,72.8,28.80,South,180,5.8,0.0,80,0.00,CLR,,0.00,WeatherDisplay:10.37,2013-04-11 16:54:00,
2013-04-11 12:59:00,79.7,72.6,28.80,West,270,3.5,3.5,79,0.00,CLR,,0.00,WeatherDisplay:10.37,2013-04-11 16:59:00,
2013-04-11 13:05:00,80.6,73.1,28.79,West,270,5.8,5.8,78,0.00,CLR,,0.00,WeatherDisplay:10.37,2013-04-11 17:05:00,
2013-04-11 13:10:00,80.8,73.3,28.80,SW,225,1.2,1.6,78,0.00,CLR,,0.00,WeatherDisplay:10.37,2013-04-11 17:10:00,
2013-04-11 13:15:00,80.2,71.6,28.79,SW,225,8.1,8.1,75,0.00,CLR,,0.00,WeatherDisplay:10.37,2013-04-11 17:15:00,
2013-04-11 13:20:00,80.2,72.0,28.79,North,0,4.6,4.6,76,0.00,CLR,,0.00,WeatherDisplay:10.37,2013-04-11 17:20:00,
2013-04-11 13:25:00,80.2,71.6,28.79,NW,315,4.6,4.6,75,0.00,CLR,,0.00,WeatherDisplay:10.37,2013-04-11 17:25:00,
2013-04-11 13:32:00,79.7,71.5,28.78,South,180,3.5,3.5,76,0.00,CLR,,0.00,WeatherDisplay:10.37,2013-04-11 17:32:00,
2013-04-11 13:37:00,80.1,72.2,28.78,SW,225,3.5,3.5,77,0.00,CLR,,0.00,WeatherDisplay:10.37,2013-04-11 17:37:00,
2013-04-11 13:43:00,79.3,71.1,28.78,South,180,3.5,3.5,76,0.00,CLR,,0.00,WeatherDisplay:10.37,2013-04-11 17:43:00,
2013-04-11 13:49:00,79.0,70.4,28.78,West,270,3.5,3.5,75,0.00,CLR,,0.00,WeatherDisplay:10.37,2013-04-11 17:49:00,
2013-04-11 13:54:00,78.4,70.6,28.78,NW,315,3.5,3.5,77,0.00,CLR,,0.00,WeatherDisplay:10.37,2013-04-11 17:54:00,
2013-04-11 14:00:00,78.8,71.0,28.77,NW,315,3.5,3.5,77,0.00,CLR,,0.00,WeatherDisplay:10.37,2013-04-11 18:00:00,
2013-04-11 14:05:00,79.5,70.5,28.77,West,270,8.1,8.1,74,0.00,CLR,,0.00,WeatherDisplay:10.37,2013-04-11 18:05:00,
2013-04-11 14:10:00,80.4,71.0,28.76,NW,315,2.3,0.0,73,0.00,CLR,,0.00,WeatherDisplay:10.37,2013-04-11 18:10:00,
2013-04-11 14:15:00,81.0,71.5,28.76,SE,135,3.5,3.5,73,0.00,CLR,,0.00,WeatherDisplay:10.37,2013-04-11 18:15:00,
2013-04-11 14:22:00,81.7,71.4,28.76,South,180,3.5,3.5,71,0.00,CLR,,0.00,WeatherDisplay:10.37,2013-04-11 18:22:00,
2013-04-11 14:28:00,82.9,72.6,28.76,SW,225,4.6,0.0,71,0.00,CLR,,0.00,WeatherDisplay:10.37,2013-04-11 18:28:00,
2013-04-11 14:33:00,83.5,72.7,28.75,NE,45,3.5,3.5,70,0.00,CLR,,0.00,WeatherDisplay:10.37,2013-04-11 18:33:00,
2013-04-11 14:38:00,82.0,70.9,28.76,South,180,5.8,5.8,69,0.00,CLR,,0.00,WeatherDisplay:10.37,2013-04-11 18:38:00,
2013-04-11 14:43:00,81.9,70.7,28.75,SW,225,1.2,3.1,69,0.00,CLR,,0.00,WeatherDisplay:10.37,2013-04-11 18:43:00,
2013-04-11 14:49:00,81.1,70.4,28.75,SW,225,5.8,5.8,70,0.00,CLR,,0.00,WeatherDisplay:10.37,2013-04-11 18:49:00,
2013-04-11 14:54:00,81.7,70.5,28.75,WSW,248,6.9,6.9,69,0.00,CLR,,0.00,WeatherDisplay:10.37,2013-04-11 18:54:00,
2013-04-11 14:59:00,80.8,70.5,28.74,SW,225,5.8,5.8,71,0.00,CLR,,0.00,WeatherDisplay:10.37,2013-04-11 18:59:00,
2013-04-11 15:04:00,79.3,69.5,28.74,NW,315,3.5,3.5,72,0.00,CLR,,0.00,WeatherDisplay:10.37,2013-04-11 19:04:00,
2013-04-11 15:09:00,78.8,70.6,28.74,North,0,1.2,1.2,76,0.00,CLR,,0.00,WeatherDisplay:10.37,2013-04-11 19:09:00,
2013-04-11 15:14:00,79.0,70.0,28.74,SW,225,3.5,3.5,74,0.00,CLR,,0.00,WeatherDisplay:10.37,2013-04-11 19:14:00,
2013-04-11 15:20:00,80.8,71.3,28.73,West,270,4.6,4.6,73,0.00,CLR,,0.00,WeatherDisplay:10.37,2013-04-11 19:20:00,
2013-04-11 15:25:00,81.9,71.1,28.73,SE,135,5.8,5.8,70,0.00,CLR,,0.00,WeatherDisplay:10.37,2013-04-11 19:25:00,
2013-04-11 15:30:00,81.5,70.3,28.72,North,0,3.5,3.5,69,0.00,CLR,,0.00,WeatherDisplay:10.37,2013-04-11 19:30:00,
2013-04-11 15:35:00,81.0,70.7,28.72,South,180,3.5,3.5,71,0.00,CLR,,0.00,WeatherDisplay:10.37,2013-04-11 19:35:00,
2013-04-11 15:41:00,80.6,71.1,28.72,South,180,5.8,5.8,73,0.00,CLR,,0.00,WeatherDisplay:10.37,2013-04-11 19:41:00,
2013-04-11 15:46:00,80.1,69.8,28.72,SW,225,5.8,5.8,71,0.00,CLR,,0.00,WeatherDisplay:10.37,2013-04-11 19:46:00,
2013-04-11 15:51:00,81.0,70.7,28.71,South,180,3.5,3.5,71,0.00,CLR,,0.00,WeatherDisplay:10.37,2013-04-11 19:51:00,
2013-04-11 15:57:00,82.0,72.1,28.70,NW,315,3.5,0.0,72,0.00,CLR,,0.00,WeatherDisplay:10.37,2013-04-11 19:57:00,
2013-04-11 16:02:00,81.9,71.1,28.70,SW,225,3.5,3.5,70,0.00,CLR,,0.00,WeatherDisplay:10.37,2013-04-11 20:02:00,
2013-04-11 16:07:00,80.4,70.6,28.69,North,0,3.5,3.5,72,0.00,CLR,,0.00,WeatherDisplay:10.37,2013-04-11 20:07:00,
2013-04-11 16:12:00,79.5,70.1,28.69,North,0,3.5,3.5,73,0.00,CLR,,0.00,WeatherDisplay:10.37,2013-04-11 20:12:00,
2013-04-11 16:18:00,78.8,69.8,28.69,NW,315,3.5,0.0,74,0.00,CLR,,0.00,WeatherDisplay:10.37,2013-04-11 20:18:00,
2013-04-11 16:23:00,78.8,70.2,28.68,SW,225,3.5,3.5,75,0.00,CLR,,0.00,WeatherDisplay:10.37,2013-04-11 20:23:00,
2013-04-11 16:28:00,79.7,70.3,28.68,NW,315,4.6,4.6,73,0.00,CLR,,0.00,WeatherDisplay:10.37,2013-04-11 20:28:00,
2013-04-11 16:33:00,80.4,71.4,28.68,SW,225,3.5,0.0,74,0.00,CLR,,0.00,WeatherDisplay:10.37,2013-04-11 20:33:00,
2013-04-11 16:39:00,80.6,70.7,28.67,SW,225,3.5,0.0,72,0.00,CLR,,0.00,WeatherDisplay:10.37,2013-04-11 20:39:00,
2013-04-11 16:45:00,80.1,70.2,28.67,SW,225,2.3,0.0,72,0.00,CLR,,0.00,WeatherDisplay:10.37,2013-04-11 20:45:00,
2013-04-11 16:50:00,79.7,69.9,28.66,SW,225,2.3,0.0,72,0.00,CLR,,0.00,WeatherDisplay:10.37,2013-04-11 20:50:00,
2013-04-11 16:55:00,79.3,70.3,28.66,NW,315,1.2,0.0,74,0.00,CLR,,0.00,WeatherDisplay:10.37,2013-04-11 20:55:00,
2013-04-11 17:00:00,79.2,70.5,28.66,NW,315,3.5,0.0,75,0.00,CLR,,0.00,WeatherDisplay:10.37,2013-04-11 21:00:00,
2013-04-11 17:05:00,80.2,71.6,28.66,NW,315,1.2,0.0,75,0.00,CLR,,0.00,WeatherDisplay:10.37,2013-04-11 21:05:00,
2013-04-11 17:10:00,81.3,71.4,28.65,South,180,3.5,3.5,72,0.00,CLR,,0.00,WeatherDisplay:10.37,2013-04-11 21:10:00,
2013-04-11 17:15:00,81.3,71.4,28.66,NW,315,3.5,0.0,72,0.00,CLR,,0.00,WeatherDisplay:10.37,2013-04-11 21:15:00,
2013-04-11 17:20:00,81.1,70.8,28.65,South,180,4.6,4.6,71,0.00,CLR,,0.00,WeatherDisplay:10.37,2013-04-11 21:20:00,
2013-04-11 17:25:00,80.2,70.4,28.65,West,270,5.8,5.8,72,0.00,CLR,,0.00,WeatherDisplay:10.37,2013-04-11 21:25:00,
2013-04-11 17:30:00,79.9,70.4,28.65,West,270,2.3,2.3,73,0.00,CLR,,0.00,WeatherDisplay:10.37,2013-04-11 21:30:00,
2013-04-11 17:35:00,79.7,70.3,28.65,West,270,3.5,3.5,73,0.00,CLR,,0.00,WeatherDisplay:10.37,2013-04-11 21:35:00,
2013-04-11 17:40:00,79.5,69.7,28.65,North,0,3.5,0.0,72,0.00,CLR,,0.00,WeatherDisplay:10.37,2013-04-11 21:40:00,
2013-04-11 17:45:00,79.5,69.3,28.65,SSW,202,3.5,3.5,71,0.00,CLR,,0.00,WeatherDisplay:10.37,2013-04-11 21:45:00,
2013-04-11 17:50:00,79.3,69.5,28.65,SSW,202,2.3,0.0,72,0.00,CLR,,0.00,WeatherDisplay:10.37,2013-04-11 21:50:00,
2013-04-11 17:55:00,79.2,68.1,28.65,SW,225,5.8,5.8,69,0.00,CLR,,0.00,WeatherDisplay:10.37,2013-04-11 21:55:00,
2013-04-11 18:00:00,79.5,68.9,28.65,South,180,5.8,5.8,70,0.00,CLR,,0.00,WeatherDisplay:10.37,2013-04-11 22:00:00,
2013-04-11 18:05:00,79.9,68.4,28.65,South,180,4.6,4.6,68,0.00,CLR,,0.00,WeatherDisplay:10.37,2013-04-11 22:05:00,
2013-04-11 18:10:00,80.4,69.3,28.65,North,0,4.6,0.0,69,0.00,CLR,,0.00,WeatherDisplay:10.37,2013-04-11 22:10:00,
2013-04-11 18:15:00,80.6,69.5,28.64,SE,135,3.5,3.5,69,0.00,CLR,,0.00,WeatherDisplay:10.37,2013-04-11 22:15:00,
2013-04-11 18:20:00,80.4,69.7,28.65,South,180,1.2,0.0,70,0.00,CLR,,0.00,WeatherDisplay:10.37,2013-04-11 22:20:00,
2013-04-11 18:25:00,80.1,69.4,28.65,SW,225,2.3,0.0,70,0.00,CLR,,0.00,WeatherDisplay:10.37,2013-04-11 22:25:00,
2013-04-11 18:30:00,79.9,69.6,28.64,West,270,1.2,0.0,71,0.00,CLR,,0.00,WeatherDisplay:10.37,2013-04-11 22:30:00,
2013-04-11 18:35:00,79.5,69.3,28.64,NW,315,1.2,0.0,71,0.00,CLR,,0.00,WeatherDisplay:10.37,2013-04-11 22:35:00,
2013-04-11 18:40:00,79.2,69.4,28.64,NW,315,4.6,0.0,72,0.00,CLR,,0.00,WeatherDisplay:10.37,2013-04-11 22:40:00,
2013-04-11 18:45:00,78.6,69.2,28.64,NW,315,3.5,3.5,73,0.00,CLR,,0.00,WeatherDisplay:10.37,2013-04-11 22:45:00,
2013-04-11 18:50:00,78.1,69.5,28.64,SW,225,3.5,3.5,75,0.00,CLR,,0.00,WeatherDisplay:10.37,2013-04-11 22:50:00,
2013-04-11 18:55:00,77.5,69.4,28.64,SW,225,2.3,0.0,76,0.00,CLR,,0.00,WeatherDisplay:10.37,2013-04-11 22:55:00,
2013-04-11 19:00:00,77.2,69.4,28.64,SW,225,3.5,0.0,77,0.00,CLR,,0.00,WeatherDisplay:10.37,2013-04-11 23:00:00,
2013-04-11 19:05:00,77.0,69.6,28.63,SW,225,2.3,0.0,78,0.00,CLR,,0.00,WeatherDisplay:10.37,2013-04-11 23:05:00,
2013-04-11 19:10:00,76.6,70.0,28.64,South,180,1.2,0.0,80,0.00,CLR,,0.00,WeatherDisplay:10.37,2013-04-11 23:10:00,
2013-04-11 19:15:00,76.1,69.8,28.63,SW,225,3.5,0.0,81,0.00,CLR,,0.00,WeatherDisplay:10.37,2013-04-11 23:15:00,
2013-04-11 19:20:00,75.6,69.7,28.63,West,270,3.5,0.0,82,0.00,CLR,,0.00,WeatherDisplay:10.37,2013-04-11 23:20:00,
2013-04-11 19:25:00,75.2,69.7,28.63,NW,315,0.0,0.0,83,0.00,CLR,,0.00,WeatherDisplay:10.37,2013-04-11 23:25:00,
2013-04-11 19:31:00,74.5,70.0,28.63,South,180,3.5,0.0,86,0.00,CLR,,0.00,WeatherDisplay:10.37,2013-04-11 23:31:00,
2013-04-11 19:36:00,74.1,69.7,28.63,South,180,0.0,0.0,86,0.00,CLR,,0.00,WeatherDisplay:10.37,2013-04-11 23:36:00,
2013-04-11 19:42:00,73.8,69.3,28.63,SW,225,1.2,0.0,86,0.00,CLR,,0.00,WeatherDisplay:10.37,2013-04-11 23:42:00,
2013-04-11 19:47:00,73.4,69.3,28.63,SW,225,0.0,0.0,87,0.00,CLR,,0.00,WeatherDisplay:10.37,2013-04-11 23:47:00,
2013-04-11 19:52:00,73.4,69.3,28.63,West,270,2.3,0.0,87,0.00,CLR,,0.00,WeatherDisplay:10.37,2013-04-11 23:52:00,
2013-04-11 19:57:00,73.2,69.5,28.63,SW,225,0.0,0.0,88,0.00,CLR,,0.00,WeatherDisplay:10.37,2013-04-11 23:57:00,
2013-04-11 20:02:00,73.0,68.9,28.63,SW,225,0.0,0.0,87,0.00,CLR,,0.00,WeatherDisplay:10.37,2013-04-12 00:02:00,
2013-04-11 20:07:00,73.0,69.3,28.62,SW,225,0.0,0.0,88,0.00,CLR,,0.00,WeatherDisplay:10.37,2013-04-12 00:07:00,
2013-04-11 20:12:00,72.9,69.1,28.63,SW,225,2.3,0.0,88,0.00,CLR,,0.00,WeatherDisplay:10.37,2013-04-12 00:12:00,
2013-04-11 20:17:00,72.9,69.4,28.63,South,180,3.5,0.0,89,0.00,CLR,,0.00,WeatherDisplay:10.37,2013-04-12 00:17:00,
2013-04-11 20:22:00,72.9,69.1,28.63,SW,225,0.0,0.0,88,0.00,CLR,,0.00,WeatherDisplay:10.37,2013-04-12 00:22:00,
2013-04-11 20:28:00,72.9,69.1,28.62,SW,225,0.0,0.0,88,0.00,CLR,,0.00,WeatherDisplay:10.37,2013-04-12 00:28:00,
2013-04-11 20:33:00,72.7,69.2,28.63,SW,225,1.2,0.0,89,0.00,CLR,,0.00,WeatherDisplay:10.37,2013-04-12 00:33:00,
2013-04-11 20:38:00,72.7,69.2,28.62,SW,225,0.0,0.0,89,0.00,CLR,,0.00,WeatherDisplay:10.37,2013-04-12 00:38:00,
2013-04-11 20:43:00,72.7,69.6,28.62,SW,225,0.0,0.0,90,0.00,CLR,,0.00,WeatherDisplay:10.37,2013-04-12 00:43:00,
2013-04-11 20:48:00,72.3,69.2,28.62,SW,225,0.0,0.0,90,0.00,CLR,,0.00,WeatherDisplay:10.37,2013-04-12 00:48:00,
2013-04-11 20:53:00,72.0,69.2,28.62,SW,225,0.0,0.0,91,0.00,CLR,,0.00,WeatherDisplay:10.37,2013-04-12 00:53:00,
2013-04-11 20:58:00,71.8,69.6,28.62,SW,225,0.0,0.0,93,0.00,CLR,,0.00,WeatherDisplay:10.37,2013-04-12 00:58:00,
2013-04-11 21:03:00,71.4,69.9,28.62,SW,225,1.2,0.0,95,0.00,CLR,,0.00,WeatherDisplay:10.37,2013-04-12 01:03:00,
2013-04-11 21:08:00,71.4,69.9,28.62,SW,225,1.2,0.0,95,0.00,CLR,,0.00,WeatherDisplay:10.37,2013-04-12 01:08:00,
2013-04-11 21:14:00,71.4,69.6,28.61,SW,225,0.0,0.0,94,0.00,CLR,,0.00,WeatherDisplay:10.37,2013-04-12 01:14:00,
2013-04-11 21:19:00,71.4,69.9,28.62,SW,225,0.0,0.0,95,0.00,CLR,,0.00,WeatherDisplay:10.37,2013-04-12 01:19:00,
2013-04-11 21:24:00,71.2,70.0,28.61,SW,225,0.0,0.0,96,0.00,CLR,,0.00,WeatherDisplay:10.37,2013-04-12 01:24:00,
2013-04-11 21:29:00,71.1,69.9,28.61,SW,225,0.0,0.0,96,0.00,CLR,,0.00,WeatherDisplay:10.37,2013-04-12 01:29:00,
2013-04-11 21:34:00,71.1,69.9,28.61,SW,225,1.2,0.0,96,0.00,CLR,,0.00,WeatherDisplay:10.37,2013-04-12 01:34:00,
2013-04-11 21:39:00,70.9,70.0,28.62,SW,225,0.0,0.0,97,0.00,CLR,,0.00,WeatherDisplay:10.37,2013-04-12 01:39:00,
2013-04-11 21:44:00,70.7,70.4,28.65,SE,135,2.3,3.1,99,0.00,CLR,,0.01,WeatherDisplay:10.37,2013-04-12 01:44:00,
2013-04-11 21:49:00,69.1,68.8,28.65,South,180,3.5,3.5,99,0.09,RA,,0.13,WeatherDisplay:10.37,2013-04-12 01:49:00,
2013-04-11 21:54:00,67.8,67.5,28.64,SW,225,6.9,6.9,99,0.14,RA,,0.14,WeatherDisplay:10.37,2013-04-12 01:54:00,
2013-04-11 21:59:00,67.3,67.0,28.64,West,270,3.5,3.5,99,0.14,RA,,0.14,WeatherDisplay:10.37,2013-04-12 01:59:00,
2013-04-11 22:04:00,66.9,66.6,28.64,SW,225,3.5,3.5,99,0.14,CLR,,0.14,WeatherDisplay:10.37,2013-04-12 02:04:00,
2013-04-11 22:09:00,66.6,66.3,28.64,SW,225,5.8,5.8,99,0.14,CLR,,0.14,WeatherDisplay:10.37,2013-04-12 02:09:00,
2013-04-11 22:14:00,66.4,66.1,28.63,South,180,3.5,3.5,99,0.14,CLR,,0.14,WeatherDisplay:10.37,2013-04-12 02:14:00,
2013-04-11 22:19:00,66.4,66.1,28.63,SW,225,3.5,0.0,99,0.14,CLR,,0.14,WeatherDisplay:10.37,2013-04-12 02:19:00,
2013-04-11 22:24:00,66.4,66.1,28.64,South,180,4.6,0.0,99,0.15,RA,,0.15,WeatherDisplay:10.37,2013-04-12 02:24:00,
2013-04-11 22:29:00,66.2,65.9,28.63,SW,225,1.2,0.0,99,0.15,RA,,0.15,WeatherDisplay:10.37,2013-04-12 02:29:00,
2013-04-11 22:34:00,66.2,65.9,28.63,South,180,1.2,0.0,99,0.15,CLR,,0.15,WeatherDisplay:10.37,2013-04-12 02:34:00,
2013-04-11 22:39:00,66.2,65.9,28.63,SW,225,1.2,0.0,99,0.15,CLR,,0.15,WeatherDisplay:10.37,2013-04-12 02:39:00,
2013-04-11 22:44:00,66.4,66.1,28.63,SW,225,3.5,0.0,99,0.15,CLR,,0.15,WeatherDisplay:10.37,2013-04-12 02:44:00,
2013-04-11 22:49:00,66.6,66.3,28.63,South,180,3.5,3.5,99,0.02,CLR,,0.15,WeatherDisplay:10.37,2013-04-12 02:49:00,
2013-04-11 22:54:00,66.7,66.5,28.63,NW,315,0.0,0.7,99,0.01,CLR,,0.15,WeatherDisplay:10.37,2013-04-12 02:54:00,
2013-04-11 22:59:00,66.7,66.5,28.63,SW,225,1.2,0.0,99,0.01,CLR,,0.15,WeatherDisplay:10.37,2013-04-12 02:59:00,
2013-04-11 23:04:00,66.7,66.5,28.63,West,270,1.2,0.0,99,0.01,CLR,,0.15,WeatherDisplay:10.37,2013-04-12 03:04:00,
2013-04-11 23:09:00,66.9,66.6,28.63,SW,225,2.3,0.0,99,0.01,CLR,,0.15,WeatherDisplay:10.37,2013-04-12 03:09:00,
2013-04-11 23:14:00,66.7,66.5,28.63,SW,225,0.0,0.0,99,0.01,CLR,,0.15,WeatherDisplay:10.37,2013-04-12 03:14:00,
2013-04-11 23:19:00,66.9,66.6,28.63,SW,225,1.2,0.0,99,0.01,CLR,,0.15,WeatherDisplay:10.37,2013-04-12 03:19:00,
2013-04-11 23:24:00,66.9,66.6,28.64,SW,225,0.0,0.0,99,0.00,CLR,,0.15,WeatherDisplay:10.37,2013-04-12 03:24:00,
2013-04-11 23:29:00,67.1,66.8,28.63,NE,45,2.3,2.3,99,0.00,CLR,,0.15,WeatherDisplay:10.37,2013-04-12 03:29:00,
2013-04-11 23:34:00,67.1,66.8,28.63,NW,315,1.2,1.6,99,0.00,CLR,,0.15,WeatherDisplay:10.37,2013-04-12 03:34:00,
2013-04-11 23:39:00,67.3,67.0,28.63,South,180,3.5,0.0,99,0.00,CLR,,0.15,WeatherDisplay:10.37,2013-04-12 03:39:00,
2013-04-11 23:44:00,67.5,67.2,28.63,SW,225,1.2,1.6,99,0.00,CLR,,0.15,WeatherDisplay:10.37,2013-04-12 03:44:00,
2013-04-11 23:49:00,67.5,67.2,28.62,SW,225,6.9,6.9,99,0.00,CLR,,0.15,WeatherDisplay:10.37,2013-04-12 03:49:00,
2013-04-11 23:54:00,67.6,67.3,28.63,East,90,5.8,5.8,99,0.00,CLR,,0.15,WeatherDisplay:10.37,2013-04-12 03:54:00,
2013-04-11 23:59:00,67.8,67.5,28.63,South,180,3.5,3.8,99,0.00,CLR,,0.15,WeatherDisplay:10.37,2013-04-12 03:59:00,